www.cux-wetter.de
Wetterdaten: Woche 20.10.08 - 26.10.08 (KW43)
Datum Zeit Temp. A. Feuchte A. Luftdruck Regen Wind Richtung Sonnenschein Solar Taupunkt Windchill Windben
20.10.2008 00:00 11,7 C 83 % 1014,5 hPa 0,0 l/m 24,3 km/h (4 Bft) W-SW 0,00 h 0 W/m 9,0 C 4,3 C 24,3 km/h (4 Bft)
20.10.2008 01:00 11,0 C 83 % 1014,5 hPa 0,0 l/m 23,6 km/h (4 Bft) W-SW 0,00 h 0 W/m 8,3 C 3,6 C 23,6 km/h (4 Bft)
20.10.2008 02:00 10,4 C 85 % 1013,7 hPa 0,0 l/m 23,6 km/h (4 Bft) W-SW 0,00 h 0 W/m 8,0 C 2,8 C 23,6 km/h (4 Bft)
20.10.2008 03:00 10,9 C 82 % 1013,5 hPa 0,0 l/m 26,6 km/h (4 Bft) W 0,00 h 0 W/m 7,9 C 2,6 C 26,6 km/h (4 Bft)
20.10.2008 04:00 10,6 C 82 % 1012,5 hPa 0,0 l/m 26,1 km/h (4 Bft) W 0,00 h 0 W/m 7,6 C 2,4 C 26,1 km/h (4 Bft)
20.10.2008 05:00 10,7 C 80 % 1012,3 hPa 0,0 l/m 24,0 km/h (4 Bft) W-SW 0,00 h 0 W/m 7,3 C 3,1 C 24,0 km/h (4 Bft)
20.10.2008 06:00 10,2 C 80 % 1011,5 hPa 0,0 l/m 20,2 km/h (4 Bft) W-SW 0,00 h 0 W/m 7,0 C 3,6 C 20,2 km/h (4 Bft)
20.10.2008 07:00 9,5 C 82 % 1011,3 hPa 0,0 l/m 20,7 km/h (4 Bft) W-SW 0,00 h 0 W/m 6,5 C 2,4 C 20,7 km/h (4 Bft)
20.10.2008 08:00 9,1 C 83 % 1010,5 hPa 0,0 l/m 16,9 km/h (3 Bft) SW 0,00 h 0 W/m 6,3 C 3,2 C 16,9 km/h (3 Bft)
20.10.2008 09:00 8,9 C 84 % 1010,5 hPa 0,0 l/m 18,9 km/h (3 Bft) SW 0,00 h 0 W/m 6,3 C 2,3 C 18,9 km/h (3 Bft)
20.10.2008 10:00 10,3 C 78 % 1009,8 hPa 0,0 l/m 27,8 km/h (5 Bft) W-SW 0,00 h 0 W/m 6,7 C 1,6 C 27,8 km/h (5 Bft)
20.10.2008 11:00 12,1 C 72 % 1008,8 hPa 0,0 l/m 30,3 km/h (5 Bft) W-SW 0,00 h 0 W/m 7,2 C 3,8 C 30,3 km/h (5 Bft)
20.10.2008 12:00 13,4 C 69 % 1008,4 hPa 0,0 l/m 35,6 km/h (5 Bft) W 0,00 h 0 W/m 7,8 C 4,6 C 35,6 km/h (5 Bft)
20.10.2008 13:00 14,0 C 68 % 1007,5 hPa 0,0 l/m 34,0 km/h (5 Bft) W-SW 0,00 h 0 W/m 8,1 C 5,7 C 34,0 km/h (5 Bft)
20.10.2008 14:00 13,9 C 69 % 1007,0 hPa 0,0 l/m 27,2 km/h (5 Bft) W-SW 0,00 h 0 W/m 8,2 C 6,7 C 27,2 km/h (5 Bft)
20.10.2008 15:00 14,7 C 66 % 1006,5 hPa 0,0 l/m 31,0 km/h (5 Bft) W-SW 0,00 h 0 W/m 8,3 C 7,2 C 31,0 km/h (5 Bft)
20.10.2008 16:00 14,9 C 65 % 1005,6 hPa 0,0 l/m 28,0 km/h (5 Bft) W-SW 0,00 h 0 W/m 8,4 C 7,9 C 28,0 km/h (5 Bft)
20.10.2008 17:00 14,2 C 67 % 1004,8 hPa 0,0 l/m 24,9 km/h (4 Bft) W-SW 0,00 h 0 W/m 8,1 C 7,6 C 24,9 km/h (4 Bft)
20.10.2008 18:00 14,0 C 65 % 1005,2 hPa 0,0 l/m 26,8 km/h (4 Bft) W-SW 0,00 h 0 W/m 7,5 C 6,9 C 26,8 km/h (4 Bft)
20.10.2008 19:00 13,5 C 70 % 1005,3 hPa 0,0 l/m 24,2 km/h (4 Bft) W-SW 0,00 h 0 W/m 8,1 C 6,9 C 24,2 km/h (4 Bft)
20.10.2008 20:00 13,7 C 77 % 1004,5 hPa 0,0 l/m 16,3 km/h (3 Bft) SW 0,00 h 0 W/m 9,7 C 9,2 C 16,3 km/h (3 Bft)
20.10.2008 21:00 14,3 C 79 % 1004,1 hPa 0,0 l/m 16,3 km/h (3 Bft) SW 0,00 h 0 W/m 10,8 C 9,9 C 16,3 km/h (3 Bft)
20.10.2008 22:00 14,1 C 81 % 1003,5 hPa 0,0 l/m 16,5 km/h (3 Bft) W-SW 0,00 h 0 W/m 11,0 C 9,7 C 16,5 km/h (3 Bft)
20.10.2008 23:00 13,5 C 83 % 1003,1 hPa 0,0 l/m 13,2 km/h (3 Bft) W-SW 0,00 h 0 W/m 10,7 C 10,0 C 13,2 km/h (3 Bft)
21.10.2008 00:00 13,7 C 86 % 1002,5 hPa 0,0 l/m 13,9 km/h (3 Bft) W-SW 0,00 h 0 W/m 11,3 C 10,0 C 13,9 km/h (3 Bft)
21.10.2008 01:00 13,6 C 86 % 1001,5 hPa 0,0 l/m 18,9 km/h (3 Bft) W-SW 0,00 h 0 W/m 11,4 C 8,3 C 18,9 km/h (3 Bft)
21.10.2008 02:00 13,9 C 85 % 1000,6 hPa 0,0 l/m 21,0 km/h (4 Bft) W-SW 0,00 h 0 W/m 11,4 C 8,1 C 21,0 km/h (4 Bft)
21.10.2008 03:00 14,1 C 85 % 1000,5 hPa 0,0 l/m 21,8 km/h (4 Bft) W-SW 0,00 h 0 W/m 11,5 C 8,1 C 21,8 km/h (4 Bft)
21.10.2008 04:00 14,3 C 84 % 999,8 hPa 0,0 l/m 24,7 km/h (4 Bft) W-SW 0,00 h 0 W/m 11,7 C 7,8 C 24,7 km/h (4 Bft)
21.10.2008 05:00 13,2 C 90 % 1000,5 hPa 0,6 l/m 24,2 km/h (4 Bft) W-NW 0,00 h 0 W/m 11,6 C 6,6 C 24,2 km/h (4 Bft)
21.10.2008 06:00 12,2 C 93 % 1001,2 hPa 0,3 l/m 18,7 km/h (3 Bft) W-NW 0,00 h 0 W/m 11,2 C 6,6 C 18,7 km/h (3 Bft)
21.10.2008 07:00 11,8 C 94 % 1001,5 hPa 0,9 l/m 20,2 km/h (4 Bft) W 0,00 h 0 W/m 10,9 C 5,6 C 20,2 km/h (4 Bft)
21.10.2008 08:00 11,5 C 92 % 1001,5 hPa 0,3 l/m 18,8 km/h (3 Bft) W 0,00 h 0 W/m 10,3 C 5,6 C 18,8 km/h (3 Bft)
21.10.2008 09:00 11,4 C 89 % 1002,5 hPa 0,3 l/m 23,1 km/h (4 Bft) W 0,00 h 0 W/m 9,6 C 4,2 C 23,1 km/h (4 Bft)
21.10.2008 10:00 11,5 C 88 % 1002,5 hPa 0,0 l/m 26,5 km/h (4 Bft) W 0,00 h 0 W/m 9,5 C 3,5 C 26,5 km/h (4 Bft)
21.10.2008 11:00 11,7 C 88 % 1003,3 hPa 0,0 l/m 29,4 km/h (5 Bft) W 0,00 h 0 W/m 9,9 C 3,3 C 29,4 km/h (5 Bft)
21.10.2008 12:00 11,7 C 87 % 1003,5 hPa 0,0 l/m 28,9 km/h (5 Bft) W 0,00 h 0 W/m 9,6 C 3,3 C 28,9 km/h (5 Bft)
21.10.2008 13:00 12,0 C 82 % 1004,1 hPa 0,0 l/m 31,7 km/h (5 Bft) W 0,00 h 0 W/m 9,1 C 3,2 C 31,7 km/h (5 Bft)
21.10.2008 14:00 12,2 C 81 % 1004,5 hPa 0,0 l/m 31,4 km/h (5 Bft) W 0,00 h 0 W/m 9,1 C 3,6 C 31,4 km/h (5 Bft)
21.10.2008 15:00 12,1 C 83 % 1004,9 hPa 0,3 l/m 30,7 km/h (5 Bft) W 0,00 h 0 W/m 9,3 C 3,5 C 30,7 km/h (5 Bft)
21.10.2008 16:00 11,6 C 81 % 1005,7 hPa 0,0 l/m 31,7 km/h (5 Bft) W 0,00 h 0 W/m 8,4 C 2,7 C 31,7 km/h (5 Bft)
21.10.2008 17:00 11,6 C 77 % 1006,5 hPa 0,0 l/m 29,3 km/h (5 Bft) W 0,00 h 0 W/m 7,8 C 3,1 C 29,3 km/h (5 Bft)
21.10.2008 18:00 11,2 C 77 % 1007,3 hPa 0,0 l/m 20,6 km/h (4 Bft) W-NW 0,00 h 0 W/m 7,3 C 4,7 C 20,6 km/h (4 Bft)
21.10.2008 19:00 10,9 C 78 % 1007,8 hPa 0,0 l/m 19,8 km/h (4 Bft) W-NW 0,00 h 0 W/m 7,2 C 4,5 C 19,8 km/h (4 Bft)
21.10.2008 20:00 10,5 C 79 % 1008,5 hPa 0,0 l/m 29,4 km/h (5 Bft) W 0,00 h 0 W/m 7,0 C 1,5 C 29,4 km/h (5 Bft)
21.10.2008 21:00 10,1 C 81 % 1009,5 hPa 0,0 l/m 26,5 km/h (4 Bft) W 0,00 h 0 W/m 7,0 C 1,6 C 26,5 km/h (4 Bft)
21.10.2008 22:00 9,6 C 83 % 1010,4 hPa 0,0 l/m 26,4 km/h (4 Bft) W 0,00 h 0 W/m 6,7 C 0,9 C 26,4 km/h (4 Bft)
21.10.2008 23:00 9,3 C 85 % 1011,3 hPa 0,0 l/m 26,3 km/h (4 Bft) W 0,00 h 0 W/m 6,8 C 0,5 C 26,3 km/h (4 Bft)
22.10.2008 00:00 8,7 C 87 % 1011,9 hPa 0,0 l/m 23,0 km/h (4 Bft) W 0,00 h 0 W/m 6,7 C 0,7 C 23,0 km/h (4 Bft)
22.10.2008 01:00 8,2 C 88 % 1012,5 hPa 0,0 l/m 20,6 km/h (4 Bft) W 0,00 h 0 W/m 6,3 C 0,7 C 20,6 km/h (4 Bft)
22.10.2008 02:00 8,0 C 89 % 1012,9 hPa 0,0 l/m 20,6 km/h (4 Bft) W 0,00 h 0 W/m 6,2 C 0,5 C 20,6 km/h (4 Bft)
22.10.2008 03:00 7,8 C 90 % 1013,5 hPa 0,0 l/m 20,0 km/h (4 Bft) W 0,00 h 0 W/m 6,1 C 0,4 C 20,0 km/h (4 Bft)
22.10.2008 04:00 7,8 C 91 % 1013,5 hPa 0,0 l/m 12,1 km/h (2 Bft) W 0,00 h 0 W/m 6,4 C 4,0 C 12,1 km/h (2 Bft)
22.10.2008 05:00 9,7 C 87 % 1014,2 hPa 0,0 l/m 7,5 km/h (2 Bft) SW 0,00 h 0 W/m 7,7 C 8,6 C 7,5 km/h (2 Bft)
22.10.2008 06:00 8,9 C 85 % 1014,5 hPa 0,0 l/m 12,1 km/h (2 Bft) W-SW 0,00 h 0 W/m 6,4 C 5,3 C 12,1 km/h (2 Bft)
22.10.2008 07:00 8,3 C 85 % 1014,8 hPa 0,0 l/m 13,0 km/h (3 Bft) W 0,00 h 0 W/m 6,0 C 4,1 C 13,0 km/h (3 Bft)
22.10.2008 08:00 8,6 C 84 % 1015,5 hPa 0,0 l/m 14,0 km/h (3 Bft) W-SW 0,00 h 0 W/m 6,1 C 4,0 C 14,0 km/h (3 Bft)
22.10.2008 09:00 9,2 C 83 % 1016,3 hPa 0,0 l/m 16,5 km/h (3 Bft) W 0,00 h 0 W/m 6,5 C 3,6 C 16,5 km/h (3 Bft)
22.10.2008 10:00 9,6 C 82 % 1017,3 hPa 0,0 l/m 16,5 km/h (3 Bft) W 0,00 h 0 W/m 6,7 C 4,1 C 16,5 km/h (3 Bft)
22.10.2008 11:00 10,2 C 77 % 1017,5 hPa 0,0 l/m 19,1 km/h (3 Bft) W 0,00 h 0 W/m 6,3 C 3,8 C 19,1 km/h (3 Bft)
22.10.2008 12:00 10,1 C 77 % 1017,9 hPa 0,0 l/m 19,1 km/h (3 Bft) W 0,00 h 0 W/m 6,3 C 3,8 C 19,1 km/h (3 Bft)
22.10.2008 13:00 10,4 C 78 % 1017,8 hPa 0,0 l/m 19,1 km/h (3 Bft) W 0,00 h 0 W/m 6,6 C 4,1 C 19,1 km/h (3 Bft)
22.10.2008 14:00 10,8 C 75 % 1018,5 hPa 0,0 l/m 19,1 km/h (3 Bft) W 0,00 h 0 W/m 6,6 C 4,6 C 19,1 km/h (3 Bft)
22.10.2008 15:00 10,9 C 74 % 1018,5 hPa 0,0 l/m 19,1 km/h (3 Bft) W 0,00 h 0 W/m 6,5 C 4,7 C 19,1 km/h (3 Bft)
22.10.2008 16:00 10,9 C 76 % 1018,5 hPa 0,0 l/m 16,7 km/h (3 Bft) W 0,00 h 0 W/m 6,9 C 5,6 C 16,7 km/h (3 Bft)
22.10.2008 17:00 10,1 C 78 % 1018,5 hPa 0,0 l/m 16,1 km/h (3 Bft) W 0,00 h 0 W/m 6,5 C 4,8 C 16,1 km/h (3 Bft)
22.10.2008 18:00 8,8 C 83 % 1019,4 hPa 0,0 l/m 10,2 km/h (2 Bft) W-SW 0,00 h 0 W/m 6,1 C 6,3 C 10,2 km/h (2 Bft)
22.10.2008 19:00 8,5 C 86 % 1020,0 hPa 0,0 l/m 12,0 km/h (2 Bft) W-SW 0,00 h 0 W/m 6,2 C 4,7 C 12,0 km/h (2 Bft)
22.10.2008 20:00 8,8 C 87 % 1020,5 hPa 0,0 l/m 13,2 km/h (3 Bft) W-SW 0,00 h 0 W/m 6,7 C 4,6 C 13,2 km/h (3 Bft)
22.10.2008 21:00 8,9 C 87 % 1021,1 hPa 0,6 l/m 23,6 km/h (4 Bft) W-NW 0,00 h 0 W/m 6,9 C 0,9 C 23,6 km/h (4 Bft)
22.10.2008 22:00 9,0 C 88 % 1021,7 hPa 0,6 l/m 25,5 km/h (4 Bft) W 0,00 h 0 W/m 7,0 C 0,4 C 25,5 km/h (4 Bft)
22.10.2008 23:00 7,9 C 90 % 1021,9 hPa 0,0 l/m 12,0 km/h (2 Bft) W 0,00 h 0 W/m 6,4 C 4,2 C 12,0 km/h (2 Bft)
23.10.2008 00:00 7,7 C 91 % 1022,3 hPa 0,0 l/m 19,5 km/h (3 Bft) W 0,00 h 0 W/m 6,4 C 1,2 C 19,5 km/h (3 Bft)
23.10.2008 01:00 7,7 C 91 % 1022,5 hPa 0,0 l/m 20,1 km/h (4 Bft) W 0,00 h 0 W/m 6,3 C 0,3 C 20,1 km/h (4 Bft)
23.10.2008 02:00 8,1 C 91 % 1022,5 hPa 0,3 l/m 20,2 km/h (4 Bft) W 0,00 h 0 W/m 6,7 C 0,8 C 20,2 km/h (4 Bft)
23.10.2008 03:00 7,3 C 92 % 1023,0 hPa 0,0 l/m 16,9 km/h (3 Bft) W 0,00 h 0 W/m 6,1 C 1,0 C 16,9 km/h (3 Bft)
23.10.2008 04:00 7,0 C 94 % 1023,5 hPa 0,0 l/m 16,8 km/h (3 Bft) W 0,00 h 0 W/m 6,1 C 0,7 C 16,8 km/h (3 Bft)
23.10.2008 05:00 7,9 C 91 % 1023,5 hPa 0,0 l/m 14,9 km/h (3 Bft) W 0,00 h 0 W/m 6,6 C 2,6 C 14,9 km/h (3 Bft)
23.10.2008 06:00 8,1 C 91 % 1023,5 hPa 0,0 l/m 11,8 km/h (2 Bft) W 0,00 h 0 W/m 6,7 C 4,7 C 11,8 km/h (2 Bft)
23.10.2008 07:00 8,2 C 87 % 1023,5 hPa 0,0 l/m 8,3 km/h (2 Bft) W-SW 0,00 h 0 W/m 6,2 C 6,7 C 8,3 km/h (2 Bft)
23.10.2008 08:00 7,5 C 87 % 1024,0 hPa 0,0 l/m 8,7 km/h (2 Bft) W-SW 0,00 h 0 W/m 5,5 C 5,7 C 8,7 km/h (2 Bft)
23.10.2008 09:00 7,2 C 88 % 1024,5 hPa 0,3 l/m 12,8 km/h (3 Bft) W 0,00 h 0 W/m 5,4 C 3,0 C 12,8 km/h (3 Bft)
23.10.2008 10:00 7,4 C 91 % 1024,5 hPa 0,0 l/m 12,9 km/h (3 Bft) SW 0,00 h 0 W/m 6,1 C 3,1 C 12,9 km/h (3 Bft)
23.10.2008 11:00 9,8 C 89 % 1024,5 hPa 0,0 l/m 15,4 km/h (3 Bft) SW 0,00 h 0 W/m 8,1 C 4,8 C 15,4 km/h (3 Bft)
23.10.2008 12:00 11,7 C 80 % 1024,0 hPa 0,0 l/m 17,5 km/h (3 Bft) W-SW 0,00 h 0 W/m 8,3 C 6,4 C 17,5 km/h (3 Bft)
23.10.2008 13:00 12,4 C 77 % 1023,5 hPa 0,0 l/m 20,8 km/h (4 Bft) W 0,00 h 0 W/m 8,4 C 6,3 C 20,8 km/h (4 Bft)
23.10.2008 14:00 12,7 C 77 % 1022,7 hPa 0,0 l/m 25,0 km/h (4 Bft) W 0,00 h 0 W/m 8,6 C 5,5 C 25,0 km/h (4 Bft)
23.10.2008 15:00 12,6 C 75 % 1022,5 hPa 0,0 l/m 27,5 km/h (5 Bft) W 0,00 h 0 W/m 8,3 C 4,8 C 27,5 km/h (5 Bft)
23.10.2008 16:00 12,4 C 75 % 1021,7 hPa 0,0 l/m 25,0 km/h (4 Bft) W 0,00 h 0 W/m 8,0 C 5,1 C 25,0 km/h (4 Bft)
23.10.2008 17:00 11,5 C 77 % 1020,8 hPa 0,0 l/m 20,7 km/h (4 Bft) W-SW 0,00 h 0 W/m 7,6 C 5,2 C 20,7 km/h (4 Bft)
23.10.2008 18:00 10,1 C 81 % 1020,5 hPa 0,0 l/m 17,5 km/h (3 Bft) SW 0,00 h 0 W/m 7,0 C 4,4 C 17,5 km/h (3 Bft)
23.10.2008 19:00 9,6 C 82 % 1020,5 hPa 0,0 l/m 17,2 km/h (3 Bft) SW 0,00 h 0 W/m 6,6 C 3,8 C 17,2 km/h (3 Bft)
23.10.2008 20:00 9,5 C 81 % 1020,5 hPa 0,0 l/m 22,2 km/h (4 Bft) SW 0,00 h 0 W/m 6,5 C 1,9 C 22,2 km/h (4 Bft)
23.10.2008 21:00 9,3 C 81 % 1020,5 hPa 0,0 l/m 24,5 km/h (4 Bft) W-SW 0,00 h 0 W/m 6,2 C 1,1 C 24,5 km/h (4 Bft)
23.10.2008 22:00 9,2 C 81 % 1019,8 hPa 0,0 l/m 23,0 km/h (4 Bft) W-SW 0,00 h 0 W/m 6,1 C 1,4 C 23,0 km/h (4 Bft)
23.10.2008 23:00 8,6 C 82 % 1019,5 hPa 0,0 l/m 23,7 km/h (4 Bft) W-SW 0,00 h 0 W/m 5,7 C 0,3 C 23,7 km/h (4 Bft)
24.10.2008 00:00 8,6 C 82 % 1019,5 hPa 0,0 l/m 23,1 km/h (4 Bft) W-SW 0,00 h 0 W/m 5,7 C 0,4 C 23,1 km/h (4 Bft)
24.10.2008 01:00 9,1 C 80 % 1018,7 hPa 0,0 l/m 24,7 km/h (4 Bft) W-SW 0,00 h 0 W/m 5,7 C 0,6 C 24,7 km/h (4 Bft)
24.10.2008 02:00 8,7 C 81 % 1018,5 hPa 0,0 l/m 21,1 km/h (4 Bft) W-SW 0,00 h 0 W/m 5,6 C 1,3 C 21,1 km/h (4 Bft)
24.10.2008 03:00 8,7 C 80 % 1017,9 hPa 0,0 l/m 22,7 km/h (4 Bft) W-SW 0,00 h 0 W/m 5,5 C 0,8 C 22,7 km/h (4 Bft)
24.10.2008 04:00 8,7 C 80 % 1017,5 hPa 0,0 l/m 21,2 km/h (4 Bft) W-SW 0,00 h 0 W/m 5,5 C 1,3 C 21,2 km/h (4 Bft)
24.10.2008 05:00 8,7 C 81 % 1017,5 hPa 0,0 l/m 19,6 km/h (3 Bft) SW 0,00 h 0 W/m 5,6 C 1,8 C 19,6 km/h (3 Bft)
24.10.2008 06:00 8,4 C 84 % 1017,5 hPa 0,0 l/m 20,6 km/h (4 Bft) SW 0,00 h 0 W/m 5,8 C 1,1 C 20,6 km/h (4 Bft)
24.10.2008 07:00 8,3 C 85 % 1017,5 hPa 0,0 l/m 19,4 km/h (3 Bft) W-SW 0,00 h 0 W/m 5,9 C 1,5 C 19,4 km/h (3 Bft)
24.10.2008 08:00 9,3 C 82 % 1017,5 hPa 0,3 l/m 22,5 km/h (4 Bft) W-SW 0,00 h 0 W/m 6,4 C 1,7 C 22,5 km/h (4 Bft)
24.10.2008 09:00 9,1 C 85 % 1018,4 hPa 0,3 l/m 23,6 km/h (4 Bft) W-SW 0,00 h 0 W/m 6,7 C 1,1 C 23,6 km/h (4 Bft)
24.10.2008 10:00 9,2 C 85 % 1018,5 hPa 0,3 l/m 23,1 km/h (4 Bft) W-SW 0,00 h 0 W/m 6,9 C 1,3 C 23,1 km/h (4 Bft)
24.10.2008 11:00 9,3 C 87 % 1018,5 hPa 0,6 l/m 21,6 km/h (4 Bft) W-SW 0,00 h 0 W/m 7,3 C 2,0 C 21,6 km/h (4 Bft)
24.10.2008 12:00 9,5 C 89 % 1018,5 hPa 1,5 l/m 23,7 km/h (4 Bft) W-SW 0,00 h 0 W/m 7,7 C 1,5 C 23,7 km/h (4 Bft)
24.10.2008 13:00 9,1 C 92 % 1018,5 hPa 0,9 l/m 23,1 km/h (4 Bft) W-SW 0,00 h 0 W/m 7,9 C 1,2 C 23,1 km/h (4 Bft)
24.10.2008 14:00 9,2 C 93 % 1018,5 hPa 0,9 l/m 21,7 km/h (4 Bft) W-SW 0,00 h 0 W/m 8,2 C 1,8 C 21,7 km/h (4 Bft)
24.10.2008 15:00 9,2 C 95 % 1018,5 hPa 0,6 l/m 22,5 km/h (4 Bft) W-SW 0,00 h 0 W/m 8,4 C 1,4 C 22,5 km/h (4 Bft)
24.10.2008 16:00 9,2 C 96 % 1019,3 hPa 0,3 l/m 22,5 km/h (4 Bft) W-SW 0,00 h 0 W/m 8,5 C 1,4 C 22,5 km/h (4 Bft)
24.10.2008 17:00 9,2 C 96 % 1019,5 hPa 0,0 l/m 23,9 km/h (4 Bft) W-SW 0,00 h 0 W/m 8,6 C 1,1 C 23,9 km/h (4 Bft)
24.10.2008 18:00 9,4 C 97 % 1020,3 hPa 0,3 l/m 27,8 km/h (5 Bft) W 0,00 h 0 W/m 9,0 C 0,3 C 27,8 km/h (5 Bft)
24.10.2008 19:00 9,7 C 97 % 1021,2 hPa 0,0 l/m 21,3 km/h (4 Bft) W 0,00 h 0 W/m 9,3 C 2,6 C 21,3 km/h (4 Bft)
24.10.2008 20:00 9,9 C 97 % 1022,2 hPa 0,0 l/m 19,7 km/h (3 Bft) W 0,00 h 0 W/m 9,5 C 3,3 C 19,7 km/h (3 Bft)
24.10.2008 21:00 10,1 C 97 % 1022,5 hPa 0,3 l/m 18,2 km/h (3 Bft) W 0,00 h 0 W/m 9,7 C 4,0 C 18,2 km/h (3 Bft)
24.10.2008 22:00 9,9 C 98 % 1022,8 hPa 0,0 l/m 12,6 km/h (3 Bft) W 0,00 h 0 W/m 9,6 C 6,2 C 12,6 km/h (3 Bft)
24.10.2008 23:00 9,6 C 98 % 1024,0 hPa 0,0 l/m 9,9 km/h (2 Bft) W 0,00 h 0 W/m 9,3 C 7,2 C 9,9 km/h (2 Bft)
25.10.2008 00:00 8,8 C 98 % 1025,0 hPa 0,0 l/m 5,9 km/h (2 Bft) W-SW 0,00 h 0 W/m 8,5 C 8,3 C 5,9 km/h (2 Bft)
25.10.2008 01:00 7,7 C 97 % 1025,7 hPa 0,0 l/m 4,2 km/h (1 Bft) W-SW 0,00 h 0 W/m 7,3 C 7,7 C 4,2 km/h (1 Bft)
25.10.2008 02:00 8,1 C 98 % 1026,5 hPa 0,0 l/m 8,7 km/h (2 Bft) W-SW 0,00 h 0 W/m 7,8 C 6,3 C 8,7 km/h (2 Bft)
25.10.2008 03:00 8,0 C 98 % 1026,8 hPa 0,0 l/m 9,4 km/h (2 Bft) W-SW 0,00 h 0 W/m 7,7 C 5,9 C 9,4 km/h (2 Bft)
25.10.2008 04:00 7,3 C 97 % 1027,5 hPa 0,0 l/m 8,1 km/h (2 Bft) W-SW 0,00 h 0 W/m 6,9 C 6,0 C 8,1 km/h (2 Bft)
25.10.2008 05:00 6,9 C 97 % 1027,5 hPa 0,0 l/m 10,0 km/h (2 Bft) W-SW 0,00 h 0 W/m 6,5 C 4,2 C 10,0 km/h (2 Bft)
25.10.2008 06:00 6,4 C 98 % 1027,5 hPa 0,0 l/m 10,4 km/h (2 Bft) W-SW 0,00 h 0 W/m 6,1 C 3,5 C 10,4 km/h (2 Bft)
25.10.2008 07:00 6,1 C 98 % 1028,1 hPa 0,0 l/m 10,9 km/h (2 Bft) W-SW 0,00 h 0 W/m 5,8 C 2,8 C 10,9 km/h (2 Bft)
25.10.2008 08:00 6,7 C 96 % 1028,4 hPa 0,0 l/m 10,6 km/h (2 Bft) W-SW 0,00 h 0 W/m 6,1 C 3,6 C 10,6 km/h (2 Bft)
25.10.2008 09:00 6,9 C 94 % 1029,1 hPa 0,3 l/m 12,6 km/h (2 Bft) W-SW 0,00 h 0 W/m 5,9 C 2,6 C 12,6 km/h (2 Bft)
25.10.2008 10:00 7,6 C 96 % 1029,5 hPa 0,0 l/m 15,7 km/h (3 Bft) W-SW 0,00 h 0 W/m 6,9 C 2,0 C 15,7 km/h (3 Bft)
25.10.2008 11:00 9,5 C 90 % 1029,5 hPa 0,0 l/m 18,8 km/h (3 Bft) W 0,00 h 0 W/m 7,9 C 3,1 C 18,8 km/h (3 Bft)
25.10.2008 12:00 11,2 C 80 % 1029,2 hPa 0,0 l/m 21,1 km/h (4 Bft) W-SW 0,00 h 0 W/m 7,9 C 4,6 C 21,1 km/h (4 Bft)
25.10.2008 13:00 12,1 C 71 % 1028,1 hPa 0,0 l/m 21,7 km/h (4 Bft) W 0,00 h 0 W/m 7,1 C 5,6 C 21,7 km/h (4 Bft)
25.10.2008 14:00 12,1 C 71 % 1027,3 hPa 0,0 l/m 22,6 km/h (4 Bft) W 0,00 h 0 W/m 6,9 C 5,3 C 22,6 km/h (4 Bft)
25.10.2008 15:00 11,7 C 71 % 1026,5 hPa 0,0 l/m 25,8 km/h (4 Bft) W 0,00 h 0 W/m 6,6 C 4,0 C 25,8 km/h (4 Bft)
25.10.2008 16:00 11,3 C 72 % 1026,2 hPa 0,0 l/m 19,3 km/h (3 Bft) W 0,00 h 0 W/m 6,5 C 5,3 C 19,3 km/h (3 Bft)
25.10.2008 17:00 9,9 C 77 % 1025,5 hPa 0,0 l/m 11,1 km/h (2 Bft) SW 0,00 h 0 W/m 5,9 C 6,9 C 11,1 km/h (2 Bft)
25.10.2008 18:00 8,6 C 80 % 1024,7 hPa 0,0 l/m 9,8 km/h (2 Bft) SW 0,00 h 0 W/m 5,3 C 6,2 C 9,8 km/h (2 Bft)
25.10.2008 19:00 8,1 C 82 % 1023,8 hPa 0,0 l/m 11,7 km/h (2 Bft) SW 0,00 h 0 W/m 5,2 C 4,6 C 11,7 km/h (2 Bft)
25.10.2008 20:00 8,4 C 85 % 1023,4 hPa 0,0 l/m 16,4 km/h (3 Bft) SW 0,00 h 0 W/m 6,0 C 3,0 C 16,4 km/h (3 Bft)
25.10.2008 21:00 9,9 C 83 % 1022,8 hPa 0,0 l/m 28,5 km/h (5 Bft) W 0,00 h 0 W/m 7,1 C 0,8 C 28,5 km/h (5 Bft)
25.10.2008 22:00 9,8 C 84 % 1021,8 hPa 0,0 l/m 26,0 km/h (4 Bft) W-SW 0,00 h 0 W/m 7,3 C 1,4 C 26,0 km/h (4 Bft)
25.10.2008 23:00 9,8 C 86 % 1020,8 hPa 0,0 l/m 27,0 km/h (4 Bft) W-SW 0,00 h 0 W/m 7,6 C 1,1 C 27,0 km/h (4 Bft)
26.10.2008 00:00 10,0 C 87 % 1019,8 hPa 0,0 l/m 32,9 km/h (5 Bft) W-SW 0,00 h 0 W/m 7,9 C 0,2 C 32,9 km/h (5 Bft)
26.10.2008 01:00 10,1 C 85 % 1018,5 hPa 0,0 l/m 36,2 km/h (5 Bft) W-SW 0,00 h 0 W/m 7,7 C -0,3 C 36,2 km/h (5 Bft)
26.10.2008 02:00 10,1 C 84 % 1017,3 hPa 0,0 l/m 36,6 km/h (5 Bft) W-SW 0,00 h 0 W/m 7,6 C -0,4 C 36,6 km/h (5 Bft)
26.10.2008 03:00 10,4 C 87 % 1015,4 hPa 0,0 l/m 35,7 km/h (5 Bft) W-SW 0,00 h 0 W/m 8,2 C 0,1 C 35,7 km/h (5 Bft)
26.10.2008 04:00 10,7 C 88 % 1014,5 hPa 0,0 l/m 39,3 km/h (6 Bft) W-SW 0,00 h 0 W/m 8,7 C 0,0 C 39,3 km/h (6 Bft)
26.10.2008 05:00 10,9 C 89 % 1013,8 hPa 0,0 l/m 36,3 km/h (5 Bft) W-SW 0,00 h 0 W/m 9,1 C 0,8 C 36,3 km/h (5 Bft)
26.10.2008 06:00 10,9 C 90 % 1013,4 hPa 0,0 l/m 33,1 km/h (5 Bft) W-SW 0,00 h 0 W/m 9,3 C 1,4 C 33,1 km/h (5 Bft)
26.10.2008 07:00 10,9 C 92 % 1012,5 hPa 0,0 l/m 33,1 km/h (5 Bft) W 0,00 h 0 W/m 9,6 C 1,3 C 33,1 km/h (5 Bft)
26.10.2008 08:00 11,0 C 93 % 1012,5 hPa 0,0 l/m 33,8 km/h (5 Bft) W-SW 0,00 h 0 W/m 9,9 C 1,3 C 33,8 km/h (5 Bft)
26.10.2008 09:00 10,8 C 94 % 1012,2 hPa 0,6 l/m 34,7 km/h (5 Bft) W 0,00 h 0 W/m 9,9 C 1,0 C 34,7 km/h (5 Bft)
26.10.2008 10:00 10,6 C 97 % 1011,3 hPa 0,0 l/m 35,1 km/h (5 Bft) W-SW 0,00 h 0 W/m 10,1 C 0,7 C 35,1 km/h (5 Bft)
26.10.2008 11:00 10,8 C 97 % 1010,5 hPa 0,3 l/m 35,0 km/h (5 Bft) W-SW 0,00 h 0 W/m 10,4 C 0,9 C 35,0 km/h (5 Bft)
26.10.2008 12:00 10,9 C 98 % 1010,1 hPa 0,3 l/m 34,4 km/h (5 Bft) W-SW 0,00 h 0 W/m 10,6 C 1,2 C 34,4 km/h (5 Bft)
26.10.2008 13:00 11,1 C 98 % 1008,9 hPa 1,8 l/m 35,6 km/h (5 Bft) W 0,00 h 0 W/m 10,8 C 1,2 C 35,6 km/h (5 Bft)
26.10.2008 14:00 11,2 C 98 % 1008,5 hPa 0,9 l/m 36,1 km/h (5 Bft) W-SW 0,00 h 0 W/m 10,9 C 1,3 C 36,1 km/h (5 Bft)
26.10.2008 15:00 11,4 C 98 % 1008,5 hPa 1,2 l/m 34,2 km/h (5 Bft) W 0,00 h 0 W/m 11,1 C 1,9 C 34,2 km/h (5 Bft)
26.10.2008 16:00 11,6 C 98 % 1008,1 hPa 0,9 l/m 31,3 km/h (5 Bft) W 0,00 h 0 W/m 11,3 C 2,7 C 31,3 km/h (5 Bft)
26.10.2008 17:00 11,6 C 98 % 1008,3 hPa 0,6 l/m 29,0 km/h (5 Bft) W 0,00 h 0 W/m 11,3 C 3,2 C 29,0 km/h (5 Bft)
26.10.2008 18:00 11,5 C 98 % 1008,3 hPa 0,3 l/m 25,3 km/h (4 Bft) W 0,00 h 0 W/m 11,2 C 3,8 C 25,3 km/h (4 Bft)
26.10.2008 19:00 11,2 C 98 % 1008,2 hPa 0,0 l/m 22,0 km/h (4 Bft) W 0,00 h 0 W/m 10,8 C 4,3 C 22,0 km/h (4 Bft)
26.10.2008 20:00 10,9 C 97 % 1007,5 hPa 0,0 l/m 14,8 km/h (3 Bft) W 0,00 h 0 W/m 10,4 C 6,3 C 14,8 km/h (3 Bft)
26.10.2008 21:00 10,6 C 97 % 1007,5 hPa 0,0 l/m 18,5 km/h (3 Bft) W 0,00 h 0 W/m 10,1 C 4,6 C 18,5 km/h (3 Bft)
26.10.2008 22:00 11,4 C 92 % 1006,9 hPa 0,3 l/m 20,8 km/h (4 Bft) W 0,00 h 0 W/m 10,2 C 4,9 C 20,8 km/h (4 Bft)
26.10.2008 23:00 10,7 C 93 % 1006,2 hPa 0,0 l/m 21,9 km/h (4 Bft) W 0,00 h 0 W/m 9,7 C 3,7 C 21,9 km/h (4 Bft)
Min-Datum _ 25.10.08 20.10.08 21.10.08 - 25.10.08 - - - 25.10.08 23.10.08 25.10.08
_ Min-Zeit 07:39 16:04 04:09 - 01:09 - - - 19:19 00:34 01:09
Minimum _ 5,8 C 63 % 999,5 hPa - 0,3 km/h (0 Bft) - - - 5,0 C -6,3 C 0,3 km/h (0 Bft)
Max-Datum _ 20.10.08 24.10.08 25.10.08 26.10.08 23.10.08 - 20.10.08 20.10.08 21.10.08 20.10.08 23.10.08
_ Max-Zeit 15:59 21:34 09:29 13:09 00:34 - 00:04 00:04 05:19 23:04 00:34
Maximum _ 15,4 C 98 % 1029,5 hPa 1,8 l/m 52,5 km/h
W (7 Bft)
- 0,00 h 0 W/m 12,2 C 10,5 C 52,5 km/h
W (7 Bft)
Durchschnitt _ 10,2 C 86 % 1015,6 hPa #18,3 l/m 21,6 km/h (4 Bft) W #0 min. 0 W/m 7,8 C 3,6 C 21,6 km/h (4 Bft)
copyright by Holger Just